Latest Weather Observations for Redcliffe

IDQ60901

Issued at 6:42 pm EST Saturday 25 June 2016 (issued every 10 minutes, with the page automatically refreshed every 10 minutes)

About weather observations | Map of Brisbane area stations | Latest observations for Brisbane area | Other Formats
Station Details ID: 040958 Name: REDCLIFFE Lat: -27.22 Lon: 153.09 Height: 12.6 m
Data from the previous 72 hours. | See also: Recent months at Redcliffe
Date/Time
EST
Temp
°C
App
Temp
°C
Dew
Point
°C
Rel
Hum
%
Delta-T
°C
Wind Press
QNH
hPa
Press
MSL
hPa
Rain since
9am
mm
Dir  Spd
km/h
Gust
km/h
Spd
kts
Gust
kts
25/06:30pm 13.1 9.4 0.2 41 5.4 W 9 13 5 7 1018.9 1018.9 0.0
25/06:00pm 13.6 10.3 -0.1 39 5.7 W 7 9 4 5 1018.6 1018.6 0.0
25/05:30pm 13.9 10.6 -0.2 38 5.9 WSW 7 11 4 6 1018.1 1018.1 0.0
25/05:00pm 14.8 11.0 -0.5 35 6.4 WSW 9 13 5 7 1018.0 1018.0 0.0
25/04:30pm 16.0 11.5 -0.2 33 6.9 WSW 13 17 7 9 1017.7 1017.7 0.0
25/04:00pm 16.7 11.8 -0.5 31 7.3 SW 15 20 8 11 1017.3 1017.3 0.0
25/03:30pm 17.1 12.2 -0.6 30 7.5 SW 15 19 8 10 1017.1 1017.1 0.0
25/03:00pm 17.4 12.1 -0.3 30 7.6 SSW 17 32 9 17 1017.0 1017.0 0.0
25/02:30pm 17.2 11.7 -2.4 26 8.0 SSW 17 22 9 12 1016.9 1016.9 0.0
25/02:00pm 16.6 11.4 -2.5 27 7.7 SW 15 26 8 14 1017.0 1017.0 0.0
25/01:30pm 17.0 11.3 -1.1 29 7.6 SW 19 26 10 14 1017.2 1017.2 0.0
25/01:00pm 16.4 10.8 -2.6 27 7.7 WSW 17 24 9 13 1017.4 1017.4 0.0
25/12:30pm 16.2 11.2 -0.9 31 7.2 W 15 26 8 14 1017.8 1017.8 0.0
25/12:00pm 15.7 9.8 -2.3 29 7.3 WSW 19 26 10 14 1018.1 1018.1 0.0
25/11:30am 15.3 9.5 -1.3 32 6.8 WSW 19 30 10 16 1018.6 1018.6 0.0
25/11:00am 15.3 9.3 -1.7 31 6.9 WSW 20 30 11 16 1018.9 1018.9 0.0
25/10:30am 14.5 8.6 -0.8 35 6.3 WSW 20 32 11 17 1018.8 1018.8 0.0
25/10:00am 14.3 8.4 -0.9 35 6.2 WSW 20 32 11 17 1018.7 1018.7 0.0
25/09:30am 13.4 7.7 -0.6 38 5.7 WSW 19 26 10 14 1019.2 1019.2 0.0
25/09:00am 12.9 7.2 0.3 42 5.2 WSW 20 30 11 16 1019.1 1019.1 0.0
25/08:30am 12.3 6.7 0.1 43 5.0 WSW 19 30 10 16 1018.9 1018.9 0.0
25/08:00am 11.9 6.5 1.3 48 4.5 WSW 19 28 10 15 1018.7 1018.7 0.0
25/07:30am 11.2 6.5 0.6 48 4.4 W 15 28 8 15 1018.4 1018.4 0.0
25/07:00am 10.8 5.7 0.5 49 4.2 WSW 17 22 9 12 1017.8 1017.8 0.0
25/06:30am 10.7 5.2 0.7 50 4.1 WSW 19 26 10 14 1017.7 1017.7 0.0
25/06:00am 10.9 6.1 0.3 48 4.3 WSW 15 24 8 13 1017.3 1017.3 0.0
25/05:30am 11.4 6.6 0.2 46 4.6 WSW 15 22 8 12 1016.8 1016.8 0.0
25/05:00am 12.1 5.6 0.5 45 4.8 WSW 24 35 13 19 1016.1 1016.1 0.0
25/04:30am 12.1 5.7 0.8 46 4.7 WSW 24 33 13 18 1016.0 1016.0 0.0
25/04:00am 12.5 8.9 0.6 44 5.0 SW 9 13 5 7 1015.5 1015.5 0.0
25/03:30am 13.1 8.0 0.8 43 5.2 SW 17 33 9 18 1015.1 1015.1 0.0
25/03:00am 13.3 5.7 0.7 42 5.3 SW 30 41 16 22 1014.5 1014.5 0.0
25/02:30am 13.3 6.8 0.3 41 5.4 WSW 24 33 13 18 1014.7 1014.7 0.0
25/02:00am 13.7 6.4 0.0 39 5.7 WSW 28 44 15 24 1014.6 1014.6 0.0
25/01:30am 14.4 7.7 -0.8 35 6.3 SW 24 41 13 22 1014.0 1014.0 0.0
25/01:18am 14.5 7.2 0.0 37 6.1 WSW 28 54 15 29 1014.0 1014.0 0.0
25/01:00am 14.9 9.4 0.4 37 6.2 WSW 19 30 10 16 1014.0 1014.0 0.0
25/12:30am 15.3 9.7 1.1 38 6.2 WSW 20 33 11 18 1013.3 1013.3 0.0
25/12:00am 15.6 7.9 2.4 41 5.9 W 32 57 17 31 1013.3 1013.3 0.0
 
Date/Time
EST
Temp
°C
App
Temp
°C
Dew
Point
°C
Rel
Hum
%
Delta-T
°C
Wind Press
QNH
hPa
Press
MSL
hPa
Rain since
9am
mm
Dir  Spd
km/h
Gust
km/h
Spd
kts
Gust
kts
24/11:42pm 15.7 8.7 2.2 40 6.0 W 28 48 15 26 1013.6 1013.6 0.0
24/11:30pm 15.9 10.1 2.3 40 6.1 WSW 22 35 12 19 1013.6 1013.6 0.0
24/11:00pm 16.1 10.9 3.5 43 5.8 WSW 20 33 11 18 1013.6 1013.6 0.0
24/10:30pm 16.4 10.8 3.5 42 5.9 WSW 22 32 12 17 1013.9 1013.9 0.0
24/10:00pm 16.6 10.5 4.6 45 5.7 WSW 26 48 14 26 1014.0 1014.0 0.0
24/09:41pm 16.9 10.2 3.6 41 6.2 WSW 28 46 15 25 1013.9 1013.9 0.0
24/09:30pm 17.4 9.9 3.3 39 6.5 WSW 32 48 17 26 1013.6 1013.6 0.0
24/09:00pm 17.1 8.7 3.8 41 6.2 W 37 56 20 30 1013.9 1013.9 0.0
24/08:30pm 17.2 9.8 3.8 41 6.2 WSW 32 50 17 27 1013.7 1013.7 0.0
24/08:00pm 17.2 10.0 6.1 48 5.4 WSW 33 54 18 29 1013.6 1013.6 0.0
24/07:43pm 17.8 10.7 5.7 45 5.9 WSW 32 50 17 27 1013.1 1013.1 0.0
24/07:30pm 17.9 11.2 5.5 44 6.0 WSW 30 43 16 23 1013.0 1013.0 0.0
24/07:00pm 18.5 14.1 6.7 46 5.9 WSW 19 30 10 16 1012.7 1012.7 0.0
24/06:30pm 19.0 15.1 9.5 54 5.0 W 20 32 11 17 1012.1 1012.1 0.0
24/06:00pm 19.1 17.3 10.9 59 4.5 WSW 11 17 6 9 1011.7 1011.7 0.0
24/05:30pm 19.4 16.0 10.7 57 4.7 W 19 30 10 16 1011.3 1011.3 0.0
24/05:00pm 20.0 15.9 10.1 53 5.3 W 22 35 12 19 1010.6 1010.6 0.0
24/04:30pm 21.0 16.5 10.2 50 5.9 WSW 24 37 13 20 1010.1 1010.1 0.0
24/04:00pm 21.8 17.0 11.8 53 5.6 WSW 28 43 15 23 1009.7 1009.6 0.0
24/03:40pm 22.6 17.8 11.7 50 6.1 W 28 48 15 26 1009.3 1009.2 0.0
24/03:30pm 22.5 18.7 11.3 49 6.2 W 22 37 12 20 1009.2 1009.1 0.0
24/03:01pm 23.3 18.6 12.0 49 6.4 W 28 48 15 26 1009.1 1009.0 0.0
24/03:00pm 23.3 19.0 12.0 49 6.4 W 26 48 14 26 1009.0 1008.9 0.0
24/02:54pm 23.1 18.2 11.2 47 6.6 W 28 48 15 26 1009.0 1008.9 0.0
24/02:30pm 23.0 19.0 11.7 49 6.4 WNW 24 33 13 18 1009.1 1009.0 0.0
24/02:00pm 22.8 18.1 10.6 46 6.7 WNW 26 43 14 23 1009.5 1009.4 0.0
24/01:30pm 22.7 19.1 12.0 50 6.0 W 22 37 12 20 1009.9 1009.8 0.0
24/01:00pm 22.2 17.3 12.7 55 5.4 W 30 43 16 23 1010.1 1010.1 0.0
24/12:42pm 21.9 17.4 12.5 55 5.3 W 28 46 15 25 1010.2 1010.2 0.0
24/12:30pm 22.4 17.6 12.9 55 5.4 WNW 30 44 16 24 1010.4 1010.4 0.0
24/12:00pm 21.5 17.5 12.9 58 4.9 WNW 26 39 14 21 1010.9 1010.9 0.0
24/11:30am 20.7 16.8 13.2 62 4.3 WNW 26 39 14 21 1011.5 1011.5 0.0
24/11:00am 20.4 17.2 13.1 63 4.2 WNW 22 33 12 18 1011.8 1011.8 0.0
24/10:30am 20.1 16.8 12.8 63 4.1 W 22 32 12 17 1012.5 1012.5 0.0
24/10:00am 19.4 16.1 12.7 65 3.8 WNW 22 33 12 18 1012.9 1012.9 0.0
24/09:30am 19.0 16.6 12.5 66 3.6 WNW 17 28 9 15 1012.9 1012.9 0.0
24/09:00am 18.6 16.6 12.8 69 3.3 NW 15 22 8 12 1012.8 1012.8 0.0
24/08:30am 18.0 17.6 12.9 72 2.9 NW 7 11 4 6 1012.9 1012.9 0.0
24/08:00am 16.9 15.8 13.0 78 2.2 NNW 11 13 6 7 1012.9 1012.9 0.0
24/07:30am 17.0 16.2 12.9 77 2.3 NNW 9 11 5 6 1012.6 1012.6 0.0
24/07:00am 16.6 16.2 13.1 80 2.0 NW 7 9 4 5 1012.5 1012.5 0.0
24/06:30am 16.3 16.0 12.8 80 1.9 SSW 6 7 3 4 1012.5 1012.5 0.0
24/06:00am 16.2 15.3 12.7 80 1.9 NNW 9 11 5 6 1011.9 1011.9 0.0
24/05:30am 15.8 15.4 12.5 81 1.8 WNW 6 9 3 5 1011.9 1011.9 0.0
24/05:00am 15.8 15.4 12.9 83 1.6 W 7 9 4 5 1011.9 1011.9 0.0
24/04:30am 15.8 16.7 12.9 83 1.6 CALM 0 0 0 0 1011.6 1011.6 0.0
24/04:00am 16.0 15.5 12.6 80 1.9 NNW 7 9 4 5 1011.6 1011.6 0.0
24/03:30am 15.9 16.8 12.8 82 1.7 CALM 0 0 0 0 1011.5 1011.5 0.0
24/03:00am 15.9 16.8 13.0 83 1.6 CALM 0 0 0 0 1011.8 1011.8 0.0
24/02:30am 16.1 16.9 12.7 80 1.9 CALM 0 4 0 2 1011.9 1011.9 0.0
24/02:00am 16.3 15.8 12.7 79 2.0 WSW 7 9 4 5 1012.4 1012.4 0.0
24/01:30am 16.4 15.6 12.9 80 1.9 WNW 9 11 5 6 1012.5 1012.5 0.0
24/01:00am 16.7 16.1 13.4 81 1.9 NW 9 13 5 7 1012.7 1012.7 0.0
24/12:30am 16.4 15.7 13.3 82 1.7 NW 9 11 5 6 1012.6 1012.6 0.0
24/12:00am 16.3 15.5 13.0 81 1.8 WNW 9 11 5 6 1013.0 1013.0 0.0
 
Date/Time
EST
Temp
°C
App
Temp
°C
Dew
Point
°C
Rel
Hum
%
Delta-T
°C
Wind Press
QNH
hPa
Press
MSL
hPa
Rain since
9am
mm
Dir  Spd
km/h
Gust
km/h
Spd
kts
Gust
kts
23/11:30pm 16.6 16.2 13.1 80 2.0 NW 7 9 4 5 1012.8 1012.8 0.0
23/11:00pm 16.8 15.8 13.3 80 2.0 NW 11 13 6 7 1013.2 1013.2 0.0
23/10:30pm 16.7 15.6 13.2 80 2.0 NW 11 13 6 7 1013.7 1013.7 0.0
23/10:00pm 17.0 16.0 13.5 80 2.0 NNW 11 15 6 8 1013.9 1013.9 0.0
23/09:30pm 16.8 15.9 13.7 82 1.8 NW 11 15 6 8 1013.8 1013.8 0.0
23/09:00pm 16.4 15.2 12.9 80 1.9 NW 11 13 6 7 1013.7 1013.7 0.0
23/08:30pm 16.6 15.4 12.9 79 2.1 NW 11 13 6 7 1013.5 1013.5 0.0
23/08:00pm 16.9 16.1 13.0 78 2.2 NNW 9 13 5 7 1013.7 1013.7 0.0
23/07:30pm 17.1 16.1 13.4 79 2.1 N 11 11 6 6 1013.6 1013.6 0.0
23/07:00pm 16.8 15.9 12.5 76 2.4 N 9 11 5 6 1013.6 1013.6 0.0
23/06:30pm 17.1 16.4 12.0 72 2.8 NE 7 7 4 4 1013.2 1013.2 0.0
23/06:00pm 17.2 17.9 12.3 73 2.7 CALM 0 0 0 0 1012.4 1012.4 0.0
23/05:30pm 17.4 18.1 12.1 71 2.9 CALM 0 0 0 0 1012.8 1012.8 0.0
23/05:00pm 17.4 16.9 11.9 70 3.0 E 6 7 3 4 1012.6 1012.6 0.0
23/04:30pm 17.7 17.2 12.2 70 3.0 E 6 7 3 4 1012.5 1012.5 0.0
23/04:00pm 18.3 17.5 11.1 63 3.9 E 6 7 3 4 1012.7 1012.7 0.0
23/03:30pm 18.8 17.1 9.8 56 4.8 ESE 9 13 5 7 1012.3 1012.3 0.0
23/03:00pm 18.9 17.3 10.2 57 4.7 S 9 11 5 6 1012.7 1012.7 0.0
23/02:30pm 18.7 17.0 10.0 57 4.6 WSW 9 11 5 6 1013.0 1013.0 0.0
23/02:00pm 19.1 19.2 10.1 56 4.8 CALM 0 0 0 0 1012.8 1012.8 0.0
23/01:30pm 18.9 17.9 10.2 57 4.7 E 6 11 3 6 1013.0 1013.0 0.0
23/01:00pm 18.8 17.5 10.1 57 4.6 S 7 11 4 6 1013.3 1013.3 0.0
23/12:30pm 18.6 17.1 10.7 60 4.3 SSW 9 15 5 8 1014.2 1014.2 0.0
23/12:00pm 18.2 16.2 10.1 59 4.3 SW 11 13 6 7 1014.7 1014.7 0.0
23/11:30am 18.3 16.4 10.4 60 4.2 SW 11 13 6 7 1015.1 1015.1 0.0
23/11:00am 18.0 16.7 10.1 60 4.2 SSW 7 15 4 8 1015.3 1015.3 0.0
23/10:30am 17.2 17.0 10.6 65 3.5 WSW 2 7 1 4 1015.8 1015.8 0.0
23/10:00am 16.8 15.1 11.3 70 3.0 S 11 15 6 8 1016.2 1016.2 0.0
23/09:30am 15.9 14.6 11.1 73 2.6 SW 9 11 5 6 1016.0 1016.0 0.0
23/09:00am 15.5 13.8 11.1 75 2.3 S 11 15 6 8 1016.1 1016.1 0.8
23/08:30am 15.2 13.9 11.2 77 2.1 SSW 9 11 5 6 1016.4 1016.4 0.8
23/08:00am 15.2 13.9 11.2 77 2.1 S 9 11 5 6 1015.7 1015.7 0.8
23/07:30am 15.2 14.1 10.6 74 2.4 S 7 11 4 6 1015.2 1015.2 0.8
23/07:00am 15.3 13.7 10.3 72 2.6 NW 9 17 5 9 1015.0 1015.0 0.6
23/06:30am 14.8 13.5 11.2 79 1.9 NW 9 13 5 7 1014.3 1014.3 0.6
23/06:00am 14.7 13.5 11.5 81 1.7 NNW 9 13 5 7 1014.7 1014.7 0.6
23/05:30am 14.9 13.3 11.5 80 1.8 WNW 11 15 6 8 1015.3 1015.3 0.6
23/05:00am 14.9 13.7 11.5 80 1.8 W 9 11 5 6 1014.8 1014.8 0.6
23/04:30am 15.3 13.7 11.7 79 1.9 WNW 11 15 6 8 1014.7 1014.7 0.4
23/04:00am 15.6 14.3 11.4 76 2.3 NNW 9 13 5 7 1014.0 1014.0 0.4
23/03:30am 15.9 14.7 11.7 76 2.3 NNW 9 13 5 7 1014.1 1014.1 0.4
23/03:00am 16.0 15.1 11.2 73 2.6 NNW 7 13 4 7 1013.8 1013.8 0.4
23/02:30am 15.8 14.2 11.6 76 2.3 NW 11 15 6 8 1013.7 1013.7 0.4
23/02:00am 15.8 15.0 11.6 76 2.3 NW 7 9 4 5 1014.1 1014.1 0.4
23/01:30am 15.8 13.8 11.6 76 2.3 N 13 15 7 8 1013.8 1013.8 0.2
23/01:00am 16.0 15.6 11.0 72 2.7 WNW 4 11 2 6 1014.3 1014.3 0.2
23/12:30am 16.1 13.6 11.1 72 2.7 W 15 19 8 10 1014.8 1014.8 0.0
23/12:00am 16.4 14.2 10.9 70 2.9 WNW 13 17 7 9 1014.0 1014.0 0.0
 
Date/Time
EST
Temp
°C
App
Temp
°C
Dew
Point
°C
Rel
Hum
%
Delta-T
°C
Wind Press
QNH
hPa
Press
MSL
hPa
Rain since
9am
mm
Dir  Spd
km/h
Gust
km/h
Spd
kts
Gust
kts
22/11:30pm 16.6 15.6 10.9 69 3.1 WNW 7 11 4 6 1014.2 1014.2 0.0
22/11:00pm 16.9 15.4 10.7 67 3.3 W 9 13 5 7 1014.5 1014.5 0.0
22/10:30pm 17.0 15.7 11.1 68 3.2 NW 9 11 5 6 1014.9 1014.9 0.0
22/10:00pm 16.7 15.0 11.2 70 3.0 WNW 11 15 6 8 1014.5 1014.5 0.0
22/09:30pm 17.6 14.6 10.5 63 3.8 W 17 30 9 16 1014.6 1014.6 0.0
22/09:00pm 17.8 15.1 10.2 61 4.0 WSW 15 19 8 10 1014.5 1014.5 0.0
22/08:30pm 18.0 15.2 10.1 60 4.2 WNW 15 26 8 14 1014.0 1014.0 0.0
22/08:00pm 18.0 16.0 10.1 60 4.2 W 11 15 6 8 1014.2 1014.2 0.0
22/07:30pm 18.0 14.8 10.1 60 4.2 WSW 17 22 9 12 1014.1 1014.1 0.0
22/07:00pm 17.5 15.4 9.9 61 4.0 WSW 11 15 6 8 1014.0 1014.0 0.0

Latest Capital City Observations: Canberra | Sydney | Melbourne | Brisbane | Adelaide | Perth | Hobart | Darwin

Other Formats:

Comma delimited format used in spreadsheet applications
http://www.bom.gov.au/fwo/IDQ60901/IDQ60901.95591.axf

JavaScript Object Notation format (JSON) in row-major order
http://www.bom.gov.au/fwo/IDQ60901/IDQ60901.95591.json